Terminal Aerodrome Forecast
Issued by NWS

Current Version | Previous Version | Text Only | Print | Product List | Glossary On
Versions: 1 2 3 4 5 6 7 8 9 10 11 12 13 14 15 16 17 18 19 20 21 22 23 24 25 26 27 28 29 30 31 32
000 FTUS41 KBOX 261129 TAFBAF TAF KBAF 261129Z 2612/2712 02010KT P6SM OVC060 FM261800 04008KT P6SM OVC015 FM262000 03008KT 3SM -SHSN OVC025 FM262300 03009KT 2SM -SN OVC030 FM270000 02010KT 1/2SM SN OVC030 FM270200 02011G19KT 1/2SM SN OVC015 FM270400 02012G28KT 1/2SM SN OVC010 FM270600 02013G35KT 1/4SM +SN BLSN OVC010=

USA.gov is the U.S. government's official web portal to all federal, state and local government web resources and services.